Cheney, WA (99004)

2:54 AM PDT on August 21, 2014 (GMT -0700)
Malloy Prairie | Change Station
CLOSE
Current Station
Personal Weather Station
Location: Cheney, WA
Elevation: 2374 ft
Nearby Weather Stations

Elev 2374 ft 47.50 °N, 117.77 °W | Updated 2 seconds ago

Partly Cloudy
Partly Cloudy
55.8 °F
Feels Like 55.8 °F
N
0.0
Wind Variable Wind from ENE
Gusts 1.0 mph

Today
High -- | Low -- °F
--% Chance of Precip.
Yesterday
High -- | Low -- °F
Precip. -- in
5:54 AM 7:51 PM
Waning Crescent, 15% visible
Pressure 29.89 in
Visibility 10.0 miles
Clouds Few 15000 ft
Dew Point 54 °F
Humidity 94%
Rainfall 0.00 in
Snow Depth Not available.
UV 0 out of 12
Pollen 6.60 out of 12
PM2.5 Good
Flu Activity Not available.
METAR KSKA 210858Z AUTO 07007KT 10SM FEW150 15/13 A2992 RMK AO2 RAE0817DZB0817E0841 SLP122 P0000 60000 T01500134 50003 $

More Conditions Fewer Conditions

Pressure 29.89 in
Visibility 10.0 miles
Clouds Few 15000 ft
Dew Point 54 °F
Humidity 94%
Rainfall 0.00 in
Snow Depth Not available.
UV 0 out of 12
Pollen 6.60 out of 12
PM2.5 Good
Flu Activity Not available.
METAR KSKA 210858Z AUTO 07007KT 10SM FEW150 15/13 A2992 RMK AO2 RAE0817DZB0817E0841 SLP122 P0000 60000 T01500134 50003 $

More Conditions Fewer Conditions

10-Day Weather Forecast

Almanac

Astronomy

Aug. 21, 2014 Rise Set
Actual Time 5:54 AM PDT 7:51 PM PDT
Civil Twilight 5:21 AM PDT 8:24 PM PDT
Nautical Twilight 4:41 AM PDT 9:04 PM PDT
Astronomical Twilight 3:56 AM PDT 9:49 PM PDT
Moon 2:22 AM PDT 5:29 PM PDT
Length of Visible Light 15h 02m
Length of Day
13h 56m
Tomorrow will be 3m 10s shorter.
Waning Crescent, 15% of the Moon is Illuminated
Today
Waning Crescent
Aug 25
New
Sep 2
First Quarter
Sep 8
Full
Sep 15
Last Quarter

Today's Extremes

State Highs State Lows

Community

WunderPhotos

Upload Photos

1,745,871 photos uploaded!

Nearby

Air Quality

  Air Quality AQ Index Pollutant
Yesterday Good
OZONE
Yesterday Good
PM10
Current Good
PM2.5
Thursday Good
PM10
Thursday Good
OZONE

Snow Depth

Station Depth Elevation
Quartz Peak 1 in 4700 ft
Sourdough Gulch 0 in 4000 ft
Spruce Springs 0 in 5700 ft
Bunchgrass Meadow 0 in 5000 ft
Touchet 0 in 5530 ft

Earthquake Activity

City Distance Mag. Time & Date
No recent earthquake activity has been reported nearby.
Minimum magnitude displayed is 2.5.

Coastal Water Temperatures

Place Temperature
No Stations Reporting

Nearby Weather Stations